Marwayne, Canada
Current Conditions -  °F | °C
As of 11:00 PM on Wednesday 28 Jan 2015 (Local Time) from CYLL Reporting Station
Clear Clear  
Wind Chill: -6°   Ceiling: Unl
Heat Index:   Visibility: 9mi
Dew Point:   Wind: 5mph
Humidity: 85%   Direction: 290°WNW
Pressure: 30.41"   Gusts: NA
Location:  53.52°N, 110.33°W
Report Text: CYLL 290600Z AUTO 29004KT 9SM CLR M16/M18 A3041 RMK WX MISG VIS MISG PCPN MISG SLP353
Loading
Personal Weather Stations






























Interactive Weather Map New forecast layout! Learn more

10-Day Weather Forecast

Advertisements
Track Severe Weather on mobile